Time;durP1;ratioP1;P1;durP2;ratioP2;P2;SDS_P1;SDS_P2;PMS_P1;PMS_P2;Temp;Humidity;BMP_temperature;BMP_pressure;BME280_temperature;BME280_humidity;BME280_pressure;Samples;Min_cycle;Max_cycle;Signal;HPM_P1;HPM_P2
2023/07/02 00:01:10;;;;;;;20.58;7.53;;;15.60;99.90;;;;;;5052531;28;20401;-74
2023/07/02 00:03:38;;;;;;;18.58;7.20;;;15.60;99.90;;;;;;5053681;28;20086;-73
2023/07/02 00:06:03;;;;;;;18.33;7.60;;;15.50;99.90;;;;;;5052201;28;20057;-73
2023/07/02 00:08:29;;;;;;;15.93;6.65;;;15.50;99.90;;;;;;5052516;28;20051;-74
2023/07/02 00:10:55;;;;;;;18.67;7.18;;;15.50;99.90;;;;;;5051987;28;20056;-74
2023/07/02 00:13:20;;;;;;;20.83;8.13;;;15.50;99.90;;;;;;5052266;28;20048;-74
2023/07/02 00:15:46;;;;;;;19.92;7.43;;;15.50;99.90;;;;;;5053280;28;20037;-74
2023/07/02 00:18:16;;;;;;;18.67;7.72;;;15.40;99.90;;;;;;5052301;28;20056;-74
2023/07/02 00:20:42;;;;;;;23.27;7.60;;;15.40;99.90;;;;;;5052140;28;20052;-74
2023/07/02 00:23:11;;;;;;;20.80;8.25;;;15.30;99.90;;;;;;5052020;28;20051;-74
2023/07/02 00:25:37;;;;;;;17.30;7.10;;;15.30;99.90;;;;;;5052240;28;20048;-73
2023/07/02 00:28:03;;;;;;;19.75;7.22;;;15.30;99.90;;;;;;5052447;28;20037;-74
2023/07/02 00:30:29;;;;;;;22.00;7.25;;;15.30;99.90;;;;;;5053426;28;20047;-74
2023/07/02 00:32:55;;;;;;;17.98;6.93;;;15.30;99.90;;;;;;5053388;28;20041;-74
2023/07/02 00:35:21;;;;;;;18.65;7.28;;;15.30;99.90;;;;;;5051979;28;20052;-74
2023/07/02 00:37:49;;;;;;;20.75;7.50;;;15.20;99.90;;;;;;5053363;28;20045;-74
2023/07/02 00:40:15;;;;;;;21.02;7.35;;;15.20;99.90;;;;;;5052069;28;20064;-74
2023/07/02 00:42:40;;;;;;;19.75;7.45;;;15.20;99.90;;;;;;5053283;28;20045;-74
2023/07/02 00:45:07;;;;;;;23.40;7.88;;;15.20;99.90;;;;;;5052132;28;20048;-73
2023/07/02 00:47:34;;;;;;;21.25;8.07;;;15.20;99.90;;;;;;5052073;28;20124;-74
2023/07/02 00:50:01;;;;;;;25.92;8.13;;;15.10;99.90;;;;;;5052129;28;20049;-73
2023/07/02 00:52:27;;;;;;;20.88;7.93;;;15.10;99.90;;;;;;5053273;28;20041;-73
2023/07/02 00:54:52;;;;;;;26.17;8.38;;;15.10;99.90;;;;;;5051885;28;20033;-73
2023/07/02 00:57:19;;;;;;;20.45;8.02;;;15.10;99.90;;;;;;5051846;28;20099;-74
2023/07/02 00:59:45;;;;;;;22.23;8.40;;;15.10;99.90;;;;;;5051846;28;20099;-74
2023/07/02 01:02:12;;;;;;;25.45;7.70;;;15.00;99.90;;;;;;5053214;28;20041;-74
2023/07/02 01:04:39;;;;;;;22.15;7.97;;;15.10;99.90;;;;;;5053072;28;20119;-74
2023/07/02 01:07:09;;;;;;;25.17;8.70;;;15.10;99.90;;;;;;5053022;28;20045;-74
2023/07/02 01:09:35;;;;;;;23.63;8.30;;;15.00;99.90;;;;;;5025779;28;20138;-74
2023/07/02 01:12:07;;;;;;;26.75;7.32;;;14.90;99.90;;;;;;5038231;28;20058;-74
2023/07/02 01:14:38;;;;;;;21.77;7.17;;;14.90;99.90;;;;;;5037934;28;20054;-73
2023/07/02 01:17:06;;;;;;;27.13;8.63;;;14.90;99.90;;;;;;5037880;28;20654;-73
2023/07/02 01:19:52;;;;;;;23.10;8.27;;;15.00;99.90;;;;;;5037941;28;20459;-74
2023/07/02 01:22:22;;;;;;;20.30;7.43;;;15.00;99.90;;;;;;5038084;28;20082;-73
2023/07/02 01:24:48;;;;;;;21.92;8.00;;;15.00;99.90;;;;;;5037725;28;20096;-73
2023/07/02 01:27:15;;;;;;;24.15;9.38;;;15.00;99.90;;;;;;4971669;28;20050;-73
2023/07/02 01:29:42;;;;;;;23.85;8.15;;;15.00;99.90;;;;;;5041597;28;20055;-73
2023/07/02 01:32:10;;;;;;;23.33;9.38;;;15.00;99.90;;;;;;5041709;28;20090;-73
2023/07/02 01:34:36;;;;;;;28.92;8.88;;;15.00;99.90;;;;;;4974411;28;20043;-73
2023/07/02 01:37:04;;;;;;;22.85;8.07;;;15.00;99.90;;;;;;5041443;28;20043;-73
2023/07/02 01:39:30;;;;;;;31.60;9.75;;;15.00;99.90;;;;;;5041589;28;20061;-73
2023/07/02 01:42:07;;;;;;;21.60;7.25;;;15.00;99.90;;;;;;4974909;28;20406;-73
2023/07/02 01:44:32;;;;;;;38.28;8.43;;;15.00;99.90;;;;;;5041349;28;20054;-74
2023/07/02 01:46:58;;;;;;;27.67;8.38;;;14.90;99.90;;;;;;5041069;28;20063;-73
2023/07/02 01:49:24;;;;;;;26.08;9.13;;;15.00;99.90;;;;;;5041342;28;20051;-74
2023/07/02 01:51:51;;;;;;;29.23;9.43;;;14.90;99.90;;;;;;4974103;28;20061;-73
2023/07/02 01:54:23;;;;;;;22.48;8.98;;;14.90;99.90;;;;;;5041045;28;20068;-73
2023/07/02 01:56:48;;;;;;;26.73;8.75;;;14.90;99.90;;;;;;5041030;28;20050;-73
2023/07/02 01:59:14;;;;;;;23.00;8.68;;;14.90;99.90;;;;;;5040887;28;20055;-73
2023/07/02 02:01:41;;;;;;;20.45;8.25;;;14.90;99.90;;;;;;4974219;28;20042;-73
2023/07/02 02:04:10;;;;;;;29.15;8.75;;;14.90;99.90;;;;;;5041290;28;20043;-73
2023/07/02 02:06:37;;;;;;;25.15;8.65;;;15.00;99.90;;;;;;5040946;28;20118;-73
2023/07/02 02:09:04;;;;;;;35.83;10.88;;;15.00;99.90;;;;;;5040419;28;20425;-73
2023/07/02 02:11:30;;;;;;;23.85;8.23;;;15.00;99.90;;;;;;5040771;28;20059;-74
2023/07/02 02:13:56;;;;;;;25.73;8.93;;;15.00;99.90;;;;;;5040633;28;20050;-74
2023/07/02 02:16:22;;;;;;;18.63;7.53;;;15.10;99.90;;;;;;5040404;28;20129;-73
2023/07/02 02:18:51;;;;;;;26.88;8.85;;;15.10;99.90;;;;;;5040667;28;20137;-73
2023/07/02 02:21:17;;;;;;;31.08;8.35;;;15.10;99.90;;;;;;5040800;28;20116;-73
2023/07/02 02:23:43;;;;;;;23.83;7.57;;;15.20;99.90;;;;;;4973722;28;20110;-73
2023/07/02 02:26:09;;;;;;;22.48;7.13;;;15.20;99.90;;;;;;5040317;28;20125;-73
2023/07/02 02:28:35;;;;;;;20.92;7.55;;;15.20;99.90;;;;;;4973648;28;20443;-73
2023/07/02 02:31:00;;;;;;;21.55;7.80;;;15.20;99.90;;;;;;5040743;28;20367;-74
2023/07/02 02:33:26;;;;;;;23.90;7.75;;;15.20;99.90;;;;;;5040376;28;20498;-73
2023/07/02 02:35:52;;;;;;;20.70;7.20;;;15.20;99.90;;;;;;5040221;28;20496;-73
2023/07/02 02:38:17;;;;;;;22.48;7.53;;;15.20;99.90;;;;;;5040126;28;20062;-73
2023/07/02 02:40:43;;;;;;;21.30;7.72;;;15.20;99.90;;;;;;5040199;28;20130;-74
2023/07/02 02:43:09;;;;;;;19.55;7.57;;;15.30;99.90;;;;;;5040797;28;20090;-74
2023/07/02 02:45:34;;;;;;;22.73;7.15;;;15.30;99.90;;;;;;5040221;28;20425;-73
2023/07/02 02:48:00;;;;;;;27.67;8.68;;;15.30;99.90;;;;;;5039988;28;20053;-74
2023/07/02 02:50:25;;;;;;;23.40;7.38;;;15.30;99.90;;;;;;5040152;28;20050;-73
2023/07/02 02:52:51;;;;;;;26.45;8.60;;;15.30;99.90;;;;;;4973475;28;20070;-73
2023/07/02 02:55:17;;;;;;;22.75;7.63;;;15.30;99.90;;;;;;5040175;28;20398;-73
2023/07/02 02:57:43;;;;;;;23.60;7.35;;;15.30;99.90;;;;;;4973008;28;20376;-73
2023/07/02 03:00:09;;;;;;;21.95;7.50;;;15.30;99.90;;;;;;5040277;28;20055;-73
2023/07/02 03:02:35;;;;;;;21.63;7.35;;;15.20;99.90;;;;;;5040130;28;20055;-73
2023/07/02 03:05:02;;;;;;;24.35;8.95;;;15.20;99.90;;;;;;5039595;28;20055;-73
2023/07/02 03:07:28;;;;;;;19.58;7.38;;;15.20;99.90;;;;;;5039585;28;20054;-74
2023/07/02 03:09:54;;;;;;;22.55;7.43;;;15.20;99.90;;;;;;4972582;28;20055;-74
2023/07/02 03:12:22;;;;;;;24.73;7.68;;;15.20;99.90;;;;;;4972387;28;20054;-73
2023/07/02 03:14:52;;;;;;;22.00;8.27;;;15.20;99.90;;;;;;5038388;28;20047;-73
2023/07/02 03:17:19;;;;;;;20.92;7.15;;;15.20;99.90;;;;;;5039194;28;20089;-73
2023/07/02 03:19:44;;;;;;;23.35;7.43;;;15.20;99.90;;;;;;5039275;28;20371;-73
2023/07/02 03:22:10;;;;;;;24.40;7.22;;;15.20;99.90;;;;;;4972944;28;20516;-74
2023/07/02 03:24:36;;;;;;;19.10;7.60;;;15.10;99.90;;;;;;5039332;28;20049;-74
2023/07/02 03:27:01;;;;;;;21.23;7.68;;;15.10;99.90;;;;;;5039216;28;20097;-73
2023/07/02 03:29:27;;;;;;;22.17;7.07;;;15.10;99.90;;;;;;4972372;28;20483;-73
2023/07/02 03:31:52;;;;;;;21.52;7.43;;;15.10;99.90;;;;;;5039269;28;20051;-73
2023/07/02 03:34:18;;;;;;;21.77;7.40;;;15.10;99.90;;;;;;4972533;28;20108;-73
2023/07/02 03:36:44;;;;;;;24.50;8.27;;;15.10;99.90;;;;;;5039032;28;20051;-73
2023/07/02 03:39:10;;;;;;;22.80;7.80;;;15.10;99.90;;;;;;4972584;28;20053;-74
2023/07/02 03:41:35;;;;;;;20.23;6.93;;;15.10;99.90;;;;;;5038886;28;20043;-73
2023/07/02 03:44:01;;;;;;;18.90;6.95;;;15.10;99.90;;;;;;5039061;28;20046;-73
2023/07/02 03:46:27;;;;;;;19.40;6.75;;;15.10;99.90;;;;;;5038803;28;20126;-73
2023/07/02 03:48:52;;;;;;;16.10;6.93;;;15.10;99.90;;;;;;5038822;28;20042;-73
2023/07/02 03:51:18;;;;;;;19.50;7.55;;;15.10;99.90;;;;;;5038531;28;20054;-73
2023/07/02 03:53:44;;;;;;;20.08;6.95;;;15.10;99.90;;;;;;5038908;28;20047;-73
2023/07/02 03:56:09;;;;;;;17.17;6.70;;;15.10;99.90;;;;;;5038763;28;20421;-73
2023/07/02 03:58:35;;;;;;;18.05;6.80;;;15.20;99.90;;;;;;4972319;28;20100;-73
2023/07/02 04:01:01;;;;;;;21.38;6.60;;;15.20;99.90;;;;;;4972043;28;20051;-73
2023/07/02 04:03:26;;;;;;;18.50;6.72;;;15.20;99.90;;;;;;4972296;28;20417;-73
2023/07/02 04:05:52;;;;;;;17.45;6.50;;;15.30;99.90;;;;;;4971857;28;20424;-73
2023/07/02 04:08:20;;;;;;;15.90;6.43;;;15.30;99.90;;;;;;4971916;28;20047;-73
2023/07/02 04:10:47;;;;;;;15.70;6.00;;;15.30;99.90;;;;;;4971797;28;20470;-73
2023/07/02 04:13:12;;;;;;;17.90;6.40;;;15.30;99.90;;;;;;4972285;28;20130;-73
2023/07/02 04:15:38;;;;;;;19.88;6.18;;;15.30;99.90;;;;;;5038637;28;20127;-73
2023/07/02 04:18:04;;;;;;;16.65;5.43;;;15.30;99.90;;;;;;4971745;28;20043;-73
2023/07/02 04:20:30;;;;;;;21.08;5.95;;;15.30;99.90;;;;;;5038571;28;20055;-74
2023/07/02 04:22:55;;;;;;;16.70;6.68;;;15.30;99.90;;;;;;5038399;28;20042;-74
2023/07/02 04:25:21;;;;;;;16.42;6.65;;;15.30;99.90;;;;;;5038393;28;20046;-74
2023/07/02 04:27:47;;;;;;;21.60;6.25;;;15.30;99.90;;;;;;4971695;28;20094;-73
2023/07/02 04:30:14;;;;;;;15.80;5.95;;;15.30;99.90;;;;;;5038443;28;20043;-73
2023/07/02 04:32:40;;;;;;;15.82;5.90;;;15.30;99.90;;;;;;4971915;28;20050;-73
2023/07/02 04:35:09;;;;;;;19.40;5.88;;;15.40;99.90;;;;;;5038180;28;20050;-73
2023/07/02 04:37:35;;;;;;;16.52;5.40;;;15.40;99.90;;;;;;4971651;28;20111;-73
2023/07/02 04:40:09;;;;;;;15.02;5.13;;;15.40;99.90;;;;;;5038724;28;20097;-73
2023/07/02 04:42:37;;;;;;;19.83;5.53;;;15.40;99.90;;;;;;5038219;28;20047;-73
2023/07/02 04:45:06;;;;;;;17.45;5.43;;;15.40;99.90;;;;;;5038332;28;20047;-73
2023/07/02 04:47:32;;;;;;;17.58;5.20;;;15.50;99.90;;;;;;5038121;28;20093;-73
2023/07/02 04:49:58;;;;;;;11.75;4.57;;;15.50;99.90;;;;;;4971720;28;20078;-73
2023/07/02 04:52:24;;;;;;;13.10;5.22;;;15.50;99.90;;;;;;4971647;28;20043;-73
2023/07/02 04:54:50;;;;;;;17.55;5.15;;;15.50;99.90;;;;;;5038395;28;20043;-73
2023/07/02 04:57:15;;;;;;;14.35;5.03;;;15.50;99.90;;;;;;5038028;28;20058;-73
2023/07/02 04:59:42;;;;;;;13.30;5.65;;;15.50;99.90;;;;;;5038438;28;20062;-73
2023/07/02 05:02:08;;;;;;;16.52;5.22;;;15.50;99.90;;;;;;5038460;28;20051;-73
2023/07/02 05:04:35;;;;;;;13.25;5.55;;;15.50;99.90;;;;;;5041883;28;20046;-74
2023/07/02 05:07:01;;;;;;;12.90;5.57;;;15.40;99.90;;;;;;4974390;28;20513;-73
2023/07/02 05:09:26;;;;;;;13.68;4.82;;;15.50;99.90;;;;;;4974429;28;20587;-73
2023/07/02 05:11:52;;;;;;;14.85;5.68;;;15.40;99.90;;;;;;5042004;28;20402;-73
2023/07/02 05:14:17;;;;;;;22.20;5.47;;;15.40;99.90;;;;;;5041590;28;20498;-73
2023/07/02 05:16:43;;;;;;;20.60;5.25;;;15.50;99.90;;;;;;5041435;28;20057;-73
2023/07/02 05:19:09;;;;;;;13.00;4.70;;;15.60;99.90;;;;;;5041421;28;20035;-73
2023/07/02 05:21:35;;;;;;;18.58;5.22;;;15.70;99.90;;;;;;5041765;28;20047;-73
2023/07/02 05:24:00;;;;;;;12.57;4.45;;;15.90;99.90;;;;;;5041331;28;20089;-73
2023/07/02 05:26:27;;;;;;;18.05;4.68;;;16.00;99.90;;;;;;5041154;28;20054;-73
2023/07/02 05:28:52;;;;;;;11.90;4.13;;;16.00;99.90;;;;;;5041380;28;20051;-73
2023/07/02 05:31:18;;;;;;;13.43;4.45;;;16.00;99.90;;;;;;5041576;28;20061;-74
2023/07/02 05:33:44;;;;;;;16.08;4.75;;;16.00;99.90;;;;;;5041683;28;20050;-73
2023/07/02 05:36:09;;;;;;;11.88;4.65;;;16.00;99.90;;;;;;5041213;28;20073;-74
2023/07/02 05:38:35;;;;;;;14.48;4.60;;;16.20;99.90;;;;;;4974036;28;20038;-74
2023/07/02 05:41:02;;;;;;;15.85;5.05;;;16.30;99.90;;;;;;5041272;28;20516;-74
2023/07/02 05:43:28;;;;;;;17.75;5.32;;;16.30;99.90;;;;;;4974075;28;20039;-74
2023/07/02 05:45:54;;;;;;;13.30;6.22;;;16.20;99.90;;;;;;5041050;28;20117;-73
2023/07/02 05:48:19;;;;;;;14.60;5.18;;;16.20;99.90;;;;;;5041199;28;20055;-74
2023/07/02 05:50:45;;;;;;;13.55;5.05;;;16.10;99.90;;;;;;5040887;28;20042;-73
2023/07/02 05:53:10;;;;;;;12.05;4.80;;;16.20;99.90;;;;;;4973899;28;20058;-74
2023/07/02 05:55:37;;;;;;;18.25;5.13;;;16.20;99.90;;;;;;5041114;28;20076;-73
2023/07/02 05:58:02;;;;;;;16.48;4.68;;;16.40;99.90;;;;;;5041126;28;20055;-74
2023/07/02 06:00:29;;;;;;;13.55;3.95;;;16.60;99.90;;;;;;4974077;28;20038;-74
2023/07/02 06:02:55;;;;;;;12.60;4.47;;;16.70;99.90;;;;;;4974019;28;20130;-73
2023/07/02 06:05:21;;;;;;;11.00;3.92;;;16.80;99.90;;;;;;4973847;28;20130;-74
2023/07/02 06:07:46;;;;;;;11.35;4.05;;;17.00;99.90;;;;;;5040819;28;20046;-74
2023/07/02 06:10:13;;;;;;;16.80;4.30;;;17.10;99.90;;;;;;5040470;28;20128;-74
2023/07/02 06:12:41;;;;;;;12.32;3.80;;;17.20;99.90;;;;;;5040690;28;20062;-73
2023/07/02 06:15:10;;;;;;;12.73;3.90;;;17.10;99.90;;;;;;5040446;28;20202;-73
2023/07/02 06:17:35;;;;;;;11.52;4.10;;;17.30;99.90;;;;;;5040780;28;20054;-74
2023/07/02 06:20:04;;;;;;;11.77;3.75;;;17.50;99.90;;;;;;5040338;28;20055;-73
2023/07/02 06:22:30;;;;;;;13.13;4.50;;;17.50;99.90;;;;;;5040561;28;20051;-73
2023/07/02 06:24:56;;;;;;;11.88;4.50;;;17.30;99.90;;;;;;5040224;28;20049;-72
2023/07/02 06:27:21;;;;;;;14.63;4.90;;;17.20;99.90;;;;;;5040310;28;20061;-72
2023/07/02 06:29:47;;;;;;;14.02;4.30;;;17.10;99.90;;;;;;5040453;28;20046;-72
2023/07/02 06:32:13;;;;;;;14.73;3.95;;;16.80;99.90;;;;;;5040369;28;20417;-72
2023/07/02 06:34:38;;;;;;;12.13;3.80;;;16.70;99.90;;;;;;4973592;28;20200;-77
2023/07/02 06:37:04;;;;;;;16.88;4.28;;;16.60;99.90;;;;;;5040021;28;20051;-72
2023/07/02 06:39:30;;;;;;;16.00;3.85;;;16.70;99.90;;;;;;4973169;28;20047;-72
2023/07/02 06:41:56;;;;;;;12.90;4.22;;;16.90;99.90;;;;;;5040207;28;20054;-72
2023/07/02 06:44:21;;;;;;;14.70;3.97;;;17.20;99.90;;;;;;5039933;28;20054;-72
2023/07/02 06:46:47;;;;;;;15.27;3.75;;;17.40;99.90;;;;;;4969638;28;20100;-72
2023/07/02 06:49:13;;;;;;;19.25;4.03;;;17.60;99.90;;;;;;4944748;29;20052;-72
2023/07/02 06:51:38;;;;;;;12.07;3.92;;;17.70;99.90;;;;;;5000305;28;20051;-72
2023/07/02 06:54:04;;;;;;;12.35;3.78;;;17.50;99.90;;;;;;5000412;28;20059;-72
2023/07/02 06:56:32;;;;;;;14.30;4.43;;;17.40;99.90;;;;;;5000036;28;20051;-72
2023/07/02 06:58:58;;;;;;;11.30;4.07;;;17.50;99.90;;;;;;4934396;28;20138;-72
2023/07/02 07:01:23;;;;;;;11.32;3.08;;;17.80;99.90;;;;;;5000030;28;20090;-72
2023/07/02 07:03:49;;;;;;;15.27;3.88;;;17.70;99.90;;;;;;4999828;28;20079;-73
2023/07/02 07:06:15;;;;;;;14.75;4.03;;;17.80;99.90;;;;;;4999940;28;20171;-72
2023/07/02 07:08:40;;;;;;;11.25;2.92;;;17.90;99.90;;;;;;4934210;28;20517;-72
2023/07/02 07:11:06;;;;;;;14.82;4.28;;;18.00;99.90;;;;;;4934226;28;20067;-72
2023/07/02 07:13:34;;;;;;;11.70;3.15;;;18.10;99.90;;;;;;4999744;28;20206;-72
2023/07/02 07:16:00;;;;;;;15.00;3.67;;;18.10;99.90;;;;;;5000022;28;20051;-72
2023/07/02 07:18:25;;;;;;;10.40;3.58;;;18.20;99.90;;;;;;4999721;28;20398;-72
2023/07/02 07:20:54;;;;;;;13.00;3.65;;;18.40;99.90;;;;;;4999583;28;20054;-71
2023/07/02 07:23:19;;;;;;;9.35;2.97;;;18.50;99.90;;;;;;4999812;28;20070;-71
2023/07/02 07:25:45;;;;;;;8.48;3.45;;;18.30;99.90;;;;;;4998666;28;20488;-73
2023/07/02 07:28:16;;;;;;;13.88;3.40;;;18.40;99.90;;;;;;4999532;28;20105;-73
2023/07/02 07:30:45;;;;;;;12.32;3.28;;;18.40;99.90;;;;;;4934059;29;20058;-74
2023/07/02 07:33:11;;;;;;;12.88;3.30;;;18.60;99.90;;;;;;4933930;29;20047;-75
2023/07/02 07:35:36;;;;;;;9.93;2.83;;;18.70;99.90;;;;;;4933997;29;20070;-74
2023/07/02 07:38:02;;;;;;;9.13;3.20;;;18.80;99.90;;;;;;4999669;28;20404;-75
2023/07/02 07:40:28;;;;;;;8.38;2.90;;;18.80;99.90;;;;;;4999355;28;20404;-73
2023/07/02 07:42:54;;;;;;;10.98;3.80;;;18.80;99.90;;;;;;4999715;28;20071;-74
2023/07/02 07:45:20;;;;;;;9.90;3.05;;;18.70;99.90;;;;;;4999635;28;20097;-74
2023/07/02 07:47:45;;;;;;;8.13;2.80;;;18.80;99.90;;;;;;4933649;29;20043;-74
2023/07/02 07:50:11;;;;;;;11.45;3.40;;;19.00;99.90;;;;;;4999537;28;20509;-74
2023/07/02 07:52:41;;;;;;;12.15;3.22;;;19.20;99.90;;;;;;4933936;29;20055;-74
2023/07/02 07:55:07;;;;;;;12.95;3.15;;;19.20;99.90;;;;;;4944066;28;20053;-75
2023/07/02 07:57:35;;;;;;;12.98;3.67;;;19.30;99.90;;;;;;4971898;28;20046;-74
2023/07/02 08:00:01;;;;;;;9.82;3.45;;;19.30;99.90;;;;;;4971858;28;20184;-75
2023/07/02 08:02:26;;;;;;;12.73;3.53;;;19.40;99.90;;;;;;5038777;28;20051;-75
2023/07/02 08:04:52;;;;;;;11.73;3.10;;;19.50;99.90;;;;;;5038255;28;20069;-75
2023/07/02 08:07:17;;;;;;;8.82;3.30;;;19.60;99.90;;;;;;5038549;28;20051;-75
2023/07/02 08:09:43;;;;;;;10.60;3.53;;;19.70;99.90;;;;;;5038172;28;20406;-75
2023/07/02 08:12:10;;;;;;;8.68;2.58;;;19.60;99.90;;;;;;4971998;28;20055;-75
2023/07/02 08:14:35;;;;;;;9.48;3.35;;;19.50;99.90;;;;;;5038863;28;20046;-75
2023/07/02 08:17:01;;;;;;;11.27;3.35;;;19.60;99.90;;;;;;5038153;28;20112;-75
2023/07/02 08:19:26;;;;;;;11.38;3.58;;;19.30;99.90;;;;;;4971748;28;20055;-75
2023/07/02 08:21:52;;;;;;;19.55;4.38;;;19.10;99.90;;;;;;4971830;28;20125;-75
2023/07/02 08:24:18;;;;;;;13.85;3.85;;;19.20;99.90;;;;;;5038543;28;20043;-75
2023/07/02 08:26:44;;;;;;;14.35;3.72;;;18.90;99.90;;;;;;5038302;28;20449;-74
2023/07/02 08:29:10;;;;;;;16.23;3.60;;;18.50;99.90;;;;;;5038376;28;20089;-75
2023/07/02 08:31:36;;;;;;;10.48;3.28;;;18.80;99.90;;;;;;5038131;28;20452;-74
2023/07/02 08:34:02;;;;;;;7.82;2.60;;;19.00;99.90;;;;;;5038322;28;20043;-74
2023/07/02 08:36:28;;;;;;;10.50;2.75;;;18.90;99.90;;;;;;5038843;28;20129;-75
2023/07/02 08:38:56;;;;;;;8.77;2.80;;;18.90;99.90;;;;;;5042327;28;20088;-75
2023/07/02 08:41:23;;;;;;;8.07;2.45;;;18.90;99.90;;;;;;5041905;28;20046;-74
2023/07/02 08:43:49;;;;;;;9.70;2.50;;;19.10;99.90;;;;;;5042270;28;20108;-75
2023/07/02 08:46:16;;;;;;;11.75;2.45;;;19.10;99.90;;;;;;5041753;28;20134;-74
2023/07/02 08:48:42;;;;;;;10.80;3.15;;;19.00;99.90;;;;;;5041888;28;20046;-74
2023/07/02 08:51:07;;;;;;;11.13;2.80;;;19.10;99.90;;;;;;5042286;28;20054;-75
2023/07/02 08:53:33;;;;;;;9.40;2.83;;;19.00;99.90;;;;;;5042293;28;20397;-74
2023/07/02 08:56:03;;;;;;;10.18;3.17;;;18.80;99.90;;;;;;5041992;28;20372;-75
2023/07/02 08:58:29;;;;;;;9.52;2.80;;;18.90;99.90;;;;;;5041593;28;20176;-75
2023/07/02 09:01:08;;;;;;;11.48;3.03;;;19.00;99.90;;;;;;5041857;28;20126;-75
2023/07/02 09:03:33;;;;;;;11.98;3.20;;;19.30;99.90;;;;;;5042009;28;20446;-74
2023/07/02 09:06:03;;;;;;;12.05;2.67;;;19.20;99.90;;;;;;5041486;28;20510;-75
2023/07/02 09:08:29;;;;;;;9.15;2.72;;;19.20;99.90;;;;;;4974441;28;20460;-75
2023/07/02 09:11:08;;;;;;;13.00;3.20;;;19.30;99.90;;;;;;4974545;28;20514;-75
2023/07/02 09:13:51;;;;;;;10.05;3.08;;;19.20;99.90;;;;;;5041621;28;20050;-75
2023/07/02 09:16:28;;;;;;;10.95;3.35;;;19.30;99.90;;;;;;5041755;28;20081;-75
2023/07/02 09:19:09;;;;;;;12.95;3.30;;;19.30;99.90;;;;;;4974247;28;20130;-75
2023/07/02 09:21:46;;;;;;;13.02;3.40;;;19.50;99.90;;;;;;5041362;28;20050;-76
2023/07/02 09:24:20;;;;;;;9.93;3.30;;;19.50;99.90;;;;;;4974066;28;20076;-75
2023/07/02 09:26:53;;;;;;;13.10;3.08;;;19.60;99.90;;;;;;5041185;28;20475;-75
2023/07/02 09:29:30;;;;;;;10.73;3.03;;;19.40;99.90;;;;;;5041220;28;20050;-75
2023/07/02 09:31:57;;;;;;;11.30;2.90;;;19.30;99.90;;;;;;5040669;28;20124;-76
2023/07/02 09:34:28;;;;;;;9.80;2.95;;;19.40;99.90;;;;;;4973931;28;20051;-75
2023/07/02 09:36:54;;;;;;;10.75;2.67;;;19.70;99.90;;;;;;5041239;28;20035;-75
2023/07/02 09:39:26;;;;;;;12.15;3.42;;;19.70;99.90;;;;;;5040966;28;20051;-74
2023/07/02 09:41:52;;;;;;;8.27;2.92;;;19.80;99.90;;;;;;5041367;28;20146;-74
2023/07/02 09:44:28;;;;;;;10.10;3.28;;;19.50;99.90;;;;;;5041152;28;20520;-73
2023/07/02 09:47:05;;;;;;;6.32;2.55;;;19.40;99.90;;;;;;4973965;28;20046;-73
2023/07/02 09:49:41;;;;;;;15.32;3.45;;;19.50;99.90;;;;;;5040224;28;20506;-74
2023/07/02 09:52:09;;;;;;;8.85;2.70;;;19.80;99.90;;;;;;5040866;28;20092;-74
2023/07/02 09:54:35;;;;;;;8.93;2.85;;;19.70;99.90;;;;;;4973990;28;20042;-74
2023/07/02 09:57:02;;;;;;;7.50;2.88;;;19.90;99.90;;;;;;5040986;28;20050;-74
2023/07/02 09:59:28;;;;;;;11.57;3.15;;;19.90;99.90;;;;;;5040719;28;20054;-74
2023/07/02 10:01:54;;;;;;;8.98;2.63;;;19.80;99.90;;;;;;5040506;28;20493;-74
2023/07/02 10:04:23;;;;;;;12.07;3.17;;;19.90;99.90;;;;;;5040679;28;20082;-74
2023/07/02 10:06:54;;;;;;;11.48;2.70;;;20.10;99.90;;;;;;5040558;28;20054;-74
2023/07/02 10:09:33;;;;;;;6.25;2.03;;;20.10;99.90;;;;;;5053625;28;20060;-74
2023/07/02 10:12:00;;;;;;;6.97;2.60;;;20.20;99.90;;;;;;5054241;28;20056;-74
2023/07/02 10:14:26;;;;;;;5.22;1.73;;;20.30;99.90;;;;;;5054055;28;20396;-74
2023/07/02 10:16:55;;;;;;;10.85;2.67;;;20.60;99.90;;;;;;5055462;28;20049;-75
2023/07/02 10:19:21;;;;;;;7.53;2.42;;;20.80;99.90;;;;;;5055183;28;20389;-74
2023/07/02 10:22:00;;;;;;;9.32;2.72;;;21.00;99.90;;;;;;5054014;28;20508;-75
2023/07/02 10:24:25;;;;;;;11.43;3.35;;;21.00;99.90;;;;;;5053692;28;20052;-75
2023/07/02 10:26:56;;;;;;;7.57;2.42;;;21.00;99.90;;;;;;5055121;28;20049;-75
2023/07/02 10:29:24;;;;;;;11.05;2.70;;;21.00;99.90;;;;;;5053839;28;20477;-75
2023/07/02 10:31:50;;;;;;;14.20;3.63;;;21.20;99.90;;;;;;5053866;28;20511;-75
2023/07/02 10:34:27;;;;;;;11.65;2.63;;;21.00;99.90;;;;;;5053661;28;20052;-86
2023/07/02 10:36:56;;;;;;;9.45;2.70;;;20.90;99.90;;;;;;5053634;28;20531;-86
2023/07/02 10:39:22;;;;;;;7.85;3.22;;;20.40;99.90;;;;;;5054026;28;20396;-82
2023/07/02 10:41:49;;;;;;;9.32;3.45;;;20.30;99.90;;;;;;5055256;28;20041;-80
2023/07/02 10:44:15;;;;;;;7.35;2.55;;;20.50;99.90;;;;;;5041620;28;20057;-84
2023/07/02 10:46:48;;;;;;;8.57;2.30;;;20.70;99.90;;;;;;5033582;28;20136;-84
2023/07/02 10:49:16;;;;;;;10.60;3.33;;;20.70;99.90;;;;;;5033492;28;20458;-77
2023/07/02 10:51:42;;;;;;;6.50;2.45;;;20.80;99.90;;;;;;5033693;28;20049;-88
2023/07/02 10:54:08;;;;;;;7.78;2.42;;;20.50;99.90;;;;;;5033623;28;20056;-87
2023/07/02 10:56:34;;;;;;;8.52;2.28;;;20.60;99.90;;;;;;5077867;22;20402;-86
2023/07/02 10:59:00;;;;;;;8.88;2.60;;;20.60;99.90;;;;;;5113890;28;20063;-79
2023/07/02 11:01:28;;;;;;;9.18;2.85;;;20.80;99.90;;;;;;5113991;28;20482;-82
2023/07/02 11:03:59;;;;;;;9.30;2.58;;;20.90;99.90;;;;;;5113934;28;20043;-84
2023/07/02 11:06:25;;;;;;;9.65;2.20;;;20.80;99.90;;;;;;5113834;28;20079;-83
2023/07/02 11:08:51;;;;;;;8.80;2.35;;;21.00;99.90;;;;;;5113721;28;20420;-83
2023/07/02 11:11:17;;;;;;;7.70;1.80;;;21.20;99.90;;;;;;5113801;28;20558;-75
2023/07/02 11:13:46;;;;;;;9.85;2.53;;;21.10;99.90;;;;;;5114891;28;20043;-83
2023/07/02 11:16:26;;;;;;;5.65;2.08;;;21.20;99.90;;;;;;5115029;28;20048;-82
2023/07/02 11:19:08;;;;;;;7.15;2.30;;;21.30;99.90;;;;;;5113933;28;20130;-85
2023/07/02 11:21:34;;;;;;;4.22;2.00;;;21.40;99.90;;;;;;5113527;28;20122;-84
2023/07/02 11:24:05;;;;;;;11.30;2.47;;;21.30;99.90;;;;;;5113435;28;20509;-82
2023/07/02 11:26:41;;;;;;;10.00;5.57;;;21.50;99.90;;;;;;5114723;28;20043;-85
2023/07/02 11:29:17;;;;;;;8.82;3.42;;;21.70;99.90;;;;;;5113614;28;20043;-84
2023/07/02 11:31:43;;;;;;;5.35;2.20;;;21.50;99.90;;;;;;5113350;28;20052;-74
2023/07/02 11:34:17;;;;;;;10.88;2.58;;;21.10;99.90;;;;;;5114922;28;20115;-74
2023/07/02 11:36:43;;;;;;;10.38;2.50;;;20.60;99.90;;;;;;5113407;28;20043;-74
2023/07/02 11:39:09;;;;;;;10.68;2.72;;;20.80;99.90;;;;;;5113192;28;20052;-73
2023/07/02 11:41:42;;;;;;;7.65;2.38;;;20.80;99.90;;;;;;5113308;28;20045;-73
2023/07/02 11:44:08;;;;;;;10.05;2.88;;;20.40;99.90;;;;;;5113187;28;20042;-73
2023/07/02 11:46:34;;;;;;;10.07;3.70;;;20.20;99.90;;;;;;5112931;28;20047;-72
2023/07/02 11:49:01;;;;;;;8.77;2.53;;;20.00;99.90;;;;;;5113002;28;20126;-73
2023/07/02 11:51:27;;;;;;;9.75;3.03;;;20.20;99.90;;;;;;5114270;28;20040;-73
2023/07/02 11:53:52;;;;;;;8.00;2.35;;;20.40;99.90;;;;;;5114182;28;20069;-73
2023/07/02 11:56:18;;;;;;;9.65;2.88;;;20.60;99.90;;;;;;5083772;28;20523;-72
2023/07/02 11:58:44;;;;;;;11.27;2.80;;;20.80;99.90;;;;;;5030811;28;20041;-72
2023/07/02 12:01:10;;;;;;;10.50;2.80;;;20.90;99.90;;;;;;5099224;28;20491;-73
2023/07/02 12:03:35;;;;;;;8.02;2.38;;;21.00;99.90;;;;;;5099027;28;20082;-72
2023/07/02 12:06:01;;;;;;;10.98;3.13;;;21.20;99.90;;;;;;5030605;28;20097;-72
2023/07/02 12:08:27;;;;;;;11.23;3.17;;;21.00;99.90;;;;;;5030717;28;20052;-73
2023/07/02 12:10:53;;;;;;;8.20;2.83;;;21.00;99.90;;;;;;5098541;28;20037;-73
2023/07/02 12:13:20;;;;;;;10.23;3.05;;;21.20;99.90;;;;;;5098996;28;20106;-73
2023/07/02 12:15:47;;;;;;;9.27;2.67;;;21.40;99.90;;;;;;5030992;28;20038;-73
2023/07/02 12:18:13;;;;;;;8.65;3.22;;;21.30;99.90;;;;;;5030823;28;20049;-73
2023/07/02 12:20:41;;;;;;;11.80;3.03;;;21.10;99.90;;;;;;5099244;28;20553;-73
2023/07/02 12:23:07;;;;;;;8.38;3.05;;;21.20;99.90;;;;;;5098619;28;20038;-73
2023/07/02 12:25:33;;;;;;;10.60;4.10;;;21.00;99.90;;;;;;5098757;28;20046;-73
2023/07/02 12:27:58;;;;;;;7.45;2.85;;;20.90;99.90;;;;;;5098707;28;20404;-73
2023/07/02 12:30:24;;;;;;;7.93;3.15;;;20.90;99.90;;;;;;5098447;28;20473;-73
2023/07/02 12:32:50;;;;;;;8.65;3.15;;;21.00;99.90;;;;;;5098904;28;20043;-73
2023/07/02 12:35:15;;;;;;;8.95;3.13;;;21.20;99.90;;;;;;5098696;28;20426;-73
2023/07/02 12:37:49;;;;;;;8.88;3.00;;;21.30;99.90;;;;;;5098504;28;20037;-73